createdAt,value
2023-02-15T00:00:11.604Z,51.65
2023-02-15T00:02:13.229Z,58.35
2023-02-15T00:04:19.140Z,54.72
2023-02-15T00:06:26.467Z,60.28
2023-02-15T00:08:28.030Z,54.75
2023-02-15T00:10:32.182Z,53.83
2023-02-15T00:12:33.904Z,52.20
2023-02-15T00:14:38.443Z,50.20
2023-02-15T00:16:48.512Z,51.15
2023-02-15T00:19:03.195Z,49.72
2023-02-15T00:21:30.286Z,49.35
2023-02-15T00:23:57.696Z,54.10
2023-02-15T00:26:10.853Z,46.92
2023-02-15T00:28:22.043Z,51.60
2023-02-15T00:30:33.531Z,50.85
2023-02-15T00:32:44.259Z,53.03
2023-02-15T00:34:53.871Z,47.15
2023-02-15T00:37:07.316Z,59.60
2023-02-15T00:39:22.666Z,55.78
2023-02-15T00:41:30.637Z,57.83
2023-02-15T00:43:57.829Z,59.35
2023-02-15T00:46:13.500Z,50.55
2023-02-15T00:48:27.127Z,53.85
2023-02-15T00:50:36.949Z,53.42
2023-02-15T00:52:40.945Z,56.13
2023-02-15T00:57:05.298Z,61.05
2023-02-15T00:59:09.759Z,50.65
2023-02-15T01:01:12.610Z,55.58
2023-02-15T01:03:17.319Z,60.10
2023-02-15T01:05:19.192Z,56.63
2023-02-15T01:09:24.779Z,55.92
2023-02-15T01:13:33.453Z,68.75
2023-02-15T01:15:36.503Z,65.30
2023-02-15T01:17:41.018Z,70.15
2023-02-15T01:19:48.425Z,72.35
2023-02-15T01:21:55.847Z,68.68
2023-02-15T01:23:57.317Z,62.70
2023-02-15T01:26:04.614Z,54.38
2023-02-15T01:28:09.129Z,52.85
2023-02-15T01:30:14.259Z,56.15
2023-02-15T01:32:15.832Z,54.58
2023-02-15T01:34:17.418Z,54.53
2023-02-15T01:36:37.725Z,57.63
2023-02-15T01:38:40.728Z,46.70
2023-02-15T01:40:45.116Z,55.72
2023-02-15T01:42:46.658Z,60.47
2023-02-15T01:44:48.086Z,51.50
2023-02-15T01:46:53.529Z,59.83
2023-02-15T01:48:57.676Z,57.83
2023-02-15T01:51:01.736Z,63.60
2023-02-15T01:53:03.483Z,59.63
2023-02-15T01:55:07.179Z,56.85
2023-02-15T01:57:11.731Z,55.97
2023-02-15T01:59:15.942Z,53.75
2023-02-15T02:01:20.410Z,55.45
2023-02-15T02:03:48.128Z,55.95
2023-02-15T02:05:49.719Z,57.83
2023-02-15T02:07:52.799Z,62.88
2023-02-15T02:09:54.290Z,54.15
2023-02-15T02:11:55.950Z,74.03
2023-02-15T02:16:09.222Z,68.25
2023-02-15T02:18:18.975Z,63.80
2023-02-15T02:20:39.454Z,60.20
2023-02-15T02:22:58.615Z,55.22
2023-02-15T02:25:07.927Z,63.05
2023-02-15T02:27:31.860Z,66.07
2023-02-15T02:29:55.866Z,57.25
2023-02-15T02:31:57.403Z,65.35
2023-02-15T02:34:03.009Z,65.10
2023-02-15T02:36:28.645Z,60.85
2023-02-15T02:38:51.473Z,59.92
2023-02-15T02:41:10.199Z,55.22
2023-02-15T02:43:16.274Z,59.97
2023-02-15T02:45:24.189Z,66.63
2023-02-15T02:47:33.271Z,56.72
2023-02-15T02:49:36.389Z,63.65
2023-02-15T02:51:37.793Z,59.67
2023-02-15T02:53:39.309Z,59.28
2023-02-15T02:56:07.052Z,57.08
2023-02-15T02:58:11.474Z,55.17
2023-02-15T03:00:13.303Z,60.00
2023-02-15T03:02:20.874Z,60.65
2023-02-15T03:04:32.833Z,67.78
2023-02-15T03:06:48.215Z,64.50
2023-02-15T03:09:22.553Z,63.83
2023-02-15T03:11:26.564Z,62.55
2023-02-15T03:13:28.648Z,61.00
2023-02-15T03:15:51.531Z,59.88
2023-02-15T03:17:57.873Z,57.22
2023-02-15T03:20:07.793Z,59.35
2023-02-15T03:22:20.301Z,54.08
2023-02-15T03:24:29.188Z,66.57
2023-02-15T03:26:33.265Z,59.63
2023-02-15T03:28:42.729Z,60.25
2023-02-15T03:30:50.774Z,57.95
2023-02-15T03:32:55.392Z,62.63
2023-02-15T03:35:02.788Z,55.53
2023-02-15T03:37:15.879Z,54.72
2023-02-15T03:39:25.459Z,57.63
2023-02-15T03:41:35.406Z,55.72
2023-02-15T03:43:54.553Z,57.13
2023-02-15T03:45:59.587Z,58.83
2023-02-15T03:48:07.113Z,59.03
2023-02-15T03:50:38.183Z,56.45
2023-02-15T03:52:44.997Z,54.78
2023-02-15T03:54:50.393Z,59.90
2023-02-15T03:57:11.965Z,64.35
2023-02-15T03:59:32.018Z,61.53
2023-02-15T04:01:59.872Z,57.22
2023-02-15T04:04:03.910Z,59.30
2023-02-15T04:06:05.727Z,54.45
2023-02-15T04:08:10.179Z,61.90
2023-02-15T04:10:33.347Z,55.50
2023-02-15T04:12:34.829Z,53.75
2023-02-15T04:14:54.772Z,55.05
2023-02-15T04:16:56.397Z,62.80
2023-02-15T04:19:19.091Z,59.38
2023-02-15T04:21:39.987Z,59.63
2023-02-15T04:24:00.170Z,64.22
2023-02-15T04:26:05.574Z,58.22
2023-02-15T04:28:10.002Z,54.65
2023-02-15T04:30:19.320Z,60.60
2023-02-15T04:32:20.908Z,64.65
2023-02-15T04:34:25.592Z,67.22
2023-02-15T04:36:27.110Z,66.57
2023-02-15T04:38:47.009Z,60.22
2023-02-15T04:40:52.910Z,69.22
2023-02-15T04:42:56.924Z,70.90
2023-02-15T04:47:05.518Z,55.33
2023-02-15T04:49:07.109Z,62.17
2023-02-15T04:51:12.108Z,63.85
2023-02-15T04:53:32.332Z,60.60
2023-02-15T04:55:52.336Z,63.20
2023-02-15T04:59:59.985Z,59.13
2023-02-15T05:02:04.311Z,64.57
2023-02-15T05:04:06.013Z,64.53
2023-02-15T05:06:13.627Z,60.85
2023-02-15T05:08:15.104Z,59.70
2023-02-15T05:10:19.338Z,54.45
2023-02-15T05:12:23.649Z,57.35
2023-02-15T05:14:25.204Z,59.78
2023-02-15T05:16:29.372Z,64.93
2023-02-15T05:18:33.879Z,68.63
2023-02-15T05:20:35.861Z,64.53
2023-02-15T05:22:37.764Z,63.40
2023-02-15T05:25:00.536Z,66.57
2023-02-15T05:27:23.308Z,73.45
2023-02-15T05:29:27.622Z,67.43
2023-02-15T05:31:29.359Z,67.47
2023-02-15T05:33:34.448Z,70.30
2023-02-15T05:35:38.899Z,66.15
2023-02-15T05:37:40.352Z,62.63
2023-02-15T05:40:00.692Z,65.25
2023-02-15T05:42:02.287Z,69.20
2023-02-15T05:44:03.799Z,65.22
2023-02-15T05:46:05.759Z,64.25
2023-02-15T05:48:07.377Z,63.03
2023-02-15T05:50:09.174Z,64.38
2023-02-15T05:52:29.168Z,68.85
2023-02-15T05:54:30.706Z,62.67
2023-02-15T05:56:32.223Z,59.35
2023-02-15T05:58:37.881Z,68.72
2023-02-15T06:00:39.380Z,63.78
2023-02-15T06:04:45.100Z,59.92
2023-02-15T06:08:53.374Z,69.50
2023-02-15T06:10:55.010Z,69.55
2023-02-15T06:15:03.423Z,68.80
2023-02-15T06:17:07.710Z,73.82
2023-02-15T06:19:12.141Z,63.67
2023-02-15T06:21:16.499Z,62.40
2023-02-15T06:23:20.879Z,68.72
2023-02-15T06:25:22.443Z,63.25
2023-02-15T06:27:28.715Z,72.22
2023-02-15T06:29:59.114Z,68.35
2023-02-15T06:32:15.958Z,81.82
2023-02-15T06:34:30.870Z,79.45
2023-02-15T06:36:58.929Z,117.47
2023-02-15T06:39:09.170Z,145.98
2023-02-15T06:41:19.645Z,137.40
2023-02-15T06:43:30.505Z,154.68
2023-02-15T06:45:44.475Z,159.50
2023-02-15T06:47:54.620Z,148.07
2023-02-15T06:50:11.655Z,193.50
2023-02-15T06:52:22.914Z,213.48
2023-02-15T06:54:38.064Z,230.00
2023-02-15T06:56:49.950Z,220.52
2023-02-15T06:59:02.402Z,219.20
2023-02-15T07:01:17.406Z,205.02
2023-02-15T07:03:23.313Z,237.05
2023-02-15T07:05:32.463Z,246.27
2023-02-15T07:07:34.093Z,193.48
2023-02-15T07:09:38.669Z,218.00
2023-02-15T07:11:58.845Z,201.73
2023-02-15T07:14:00.455Z,226.88
2023-02-15T07:16:02.253Z,203.57
2023-02-15T07:18:22.277Z,207.02
2023-02-15T07:20:24.138Z,239.48
2023-02-15T07:22:25.654Z,218.75
2023-02-15T07:24:45.940Z,214.75
2023-02-15T07:26:47.684Z,216.20
2023-02-15T07:28:49.104Z,202.45
2023-02-15T07:30:53.501Z,192.82
2023-02-15T07:33:16.933Z,278.13
2023-02-15T07:35:21.234Z,183.82
2023-02-15T07:37:22.780Z,174.00
2023-02-15T07:39:27.061Z,191.90
2023-02-15T07:41:28.617Z,193.07
2023-02-15T07:43:30.561Z,173.90
2023-02-15T07:45:34.888Z,171.02
2023-02-15T07:47:38.994Z,152.00
2023-02-15T07:49:43.307Z,158.52
2023-02-15T07:51:44.759Z,151.90
2023-02-15T07:53:49.625Z,135.05
2023-02-15T07:56:01.184Z,130.07
2023-02-15T07:58:05.784Z,130.45
2023-02-15T08:00:10.463Z,110.25
2023-02-15T08:02:16.455Z,110.93
2023-02-15T08:04:19.676Z,108.95
2023-02-15T08:06:25.666Z,105.15
2023-02-15T08:08:31.109Z,109.68
2023-02-15T08:10:55.104Z,100.72
2023-02-15T08:12:56.590Z,91.32
2023-02-15T08:14:58.264Z,101.03
2023-02-15T08:17:05.876Z,101.57
2023-02-15T08:19:12.448Z,102.78
2023-02-15T08:21:16.848Z,95.22
2023-02-15T08:23:18.300Z,93.32
2023-02-15T08:25:19.729Z,98.53
2023-02-15T08:27:27.642Z,89.00
2023-02-15T08:29:32.525Z,84.60
2023-02-15T08:31:38.508Z,94.28
2023-02-15T08:33:41.540Z,86.57
2023-02-15T08:35:42.975Z,88.50
2023-02-15T08:38:02.832Z,85.05
2023-02-15T08:40:07.928Z,81.47
2023-02-15T08:42:09.499Z,75.88
2023-02-15T08:44:15.503Z,73.00
2023-02-15T08:46:17.740Z,74.78
2023-02-15T08:48:22.258Z,72.70
2023-02-15T08:50:24.060Z,72.65
2023-02-15T08:52:28.648Z,78.75
2023-02-15T08:54:30.135Z,67.95
2023-02-15T08:56:35.757Z,67.95
2023-02-15T08:58:39.842Z,72.25
2023-02-15T09:00:41.277Z,68.70
2023-02-15T09:02:45.339Z,70.57
2023-02-15T09:04:49.550Z,66.68
2023-02-15T09:06:54.179Z,67.15
2023-02-15T09:08:56.457Z,67.60
2023-02-15T09:11:07.733Z,71.50
2023-02-15T09:13:12.094Z,72.57
2023-02-15T09:17:17.769Z,64.63
2023-02-15T09:19:22.758Z,73.63
2023-02-15T09:21:25.596Z,69.50
2023-02-15T09:23:30.086Z,73.28
2023-02-15T09:25:50.432Z,71.05
2023-02-15T09:27:54.883Z,79.57
2023-02-15T09:29:59.135Z,70.72
2023-02-15T09:32:03.702Z,69.45
2023-02-15T09:34:20.300Z,69.78
2023-02-15T09:36:42.044Z,72.40
2023-02-15T09:39:06.042Z,66.82
2023-02-15T09:41:56.556Z,59.58
2023-02-15T09:44:18.208Z,61.75
2023-02-15T09:46:34.283Z,61.53
2023-02-15T09:48:43.735Z,60.38
2023-02-15T09:51:01.180Z,59.47
2023-02-15T09:53:10.839Z,61.70
2023-02-15T09:55:22.976Z,57.97
2023-02-15T09:58:05.004Z,57.85
2023-02-15T10:00:22.821Z,56.20
2023-02-15T10:02:51.482Z,67.50
2023-02-15T10:05:01.708Z,63.15
2023-02-15T10:07:20.310Z,57.25
2023-02-15T10:09:41.072Z,61.92
2023-02-15T10:12:06.772Z,62.53
2023-02-15T10:14:17.114Z,55.15
2023-02-15T10:16:34.284Z,62.60
2023-02-15T10:18:44.582Z,68.13
2023-02-15T10:20:57.760Z,74.65
2023-02-15T10:23:17.761Z,73.20
2023-02-15T10:25:33.679Z,60.60
2023-02-15T10:27:37.039Z,65.85
2023-02-15T10:30:02.097Z,66.10
2023-02-15T10:32:24.514Z,50.67
2023-02-15T10:34:48.996Z,45.50
2023-02-15T10:36:53.217Z,40.72
2023-02-15T10:41:06.336Z,37.80
2023-02-15T10:43:18.931Z,38.05
2023-02-15T10:45:34.170Z,36.15
2023-02-15T10:47:47.436Z,41.22
2023-02-15T10:49:54.197Z,39.58
2023-02-15T10:52:04.662Z,34.35
2023-02-15T10:54:27.493Z,39.20
2023-02-15T10:56:38.674Z,37.75
2023-02-15T10:58:40.345Z,39.58
2023-02-15T11:00:48.220Z,32.10
2023-02-15T11:03:01.444Z,32.55
2023-02-15T11:05:20.901Z,31.35
2023-02-15T11:07:25.276Z,32.78
2023-02-15T11:09:30.799Z,28.80
2023-02-15T11:11:37.311Z,30.33
2023-02-15T11:13:47.403Z,25.65
2023-02-15T11:15:56.289Z,25.27
2023-02-15T11:18:23.789Z,28.55
2023-02-15T11:20:47.660Z,36.50
2023-02-15T11:22:50.612Z,37.60
2023-02-15T11:25:22.965Z,29.60
2023-02-15T11:27:27.102Z,32.38
2023-02-15T11:29:39.701Z,29.45
2023-02-15T11:31:45.444Z,30.85
2023-02-15T11:33:58.184Z,32.67
2023-02-15T11:36:08.362Z,35.28
2023-02-15T11:38:18.978Z,26.90
2023-02-15T11:40:28.287Z,28.42
2023-02-15T11:42:33.503Z,32.33
2023-02-15T11:44:36.924Z,29.88
2023-02-15T11:46:38.573Z,39.05
2023-02-15T11:48:40.395Z,33.03
2023-02-15T11:50:42.864Z,32.17
2023-02-15T11:53:05.124Z,31.50
2023-02-15T11:55:18.309Z,27.05
2023-02-15T11:57:38.938Z,29.87
2023-02-15T11:59:45.291Z,34.72
2023-02-15T12:01:52.842Z,32.92
2023-02-15T12:04:09.736Z,23.48
2023-02-15T12:06:16.104Z,33.15
2023-02-15T12:08:24.163Z,30.77
2023-02-15T12:10:52.547Z,30.75
2023-02-15T12:13:10.778Z,21.63
2023-02-15T12:15:15.089Z,18.38
2023-02-15T12:17:17.136Z,32.60
2023-02-15T12:19:21.945Z,25.00
2023-02-15T12:21:30.792Z,24.45
2023-02-15T12:23:32.843Z,23.13
2023-02-15T12:25:37.251Z,20.35
2023-02-15T12:27:43.800Z,27.48
2023-02-15T12:30:20.473Z,21.25
2023-02-15T12:32:48.683Z,23.10
2023-02-15T12:35:01.377Z,29.00
2023-02-15T12:37:11.531Z,24.85
2023-02-15T12:41:26.974Z,25.92
2023-02-15T12:43:39.863Z,21.15
2023-02-15T12:45:46.174Z,18.88
2023-02-15T12:48:11.481Z,18.42
2023-02-15T12:52:28.000Z,18.95
2023-02-15T12:54:40.391Z,20.23
2023-02-15T12:56:47.312Z,25.90
2023-02-15T13:01:14.227Z,24.73
2023-02-15T13:03:36.851Z,22.30
2023-02-15T13:05:45.116Z,26.85
2023-02-15T13:07:52.093Z,23.50
2023-02-15T13:09:55.229Z,26.65
2023-02-15T13:11:59.402Z,20.80
2023-02-15T13:14:07.105Z,24.50
2023-02-15T13:16:12.022Z,24.40
2023-02-15T13:18:18.270Z,22.10
2023-02-15T13:20:24.849Z,32.28
2023-02-15T13:22:29.452Z,25.63
2023-02-15T13:24:56.738Z,24.58
2023-02-15T13:27:14.127Z,20.83
2023-02-15T13:29:23.169Z,21.77
2023-02-15T13:31:33.201Z,22.67
2023-02-15T13:33:36.944Z,20.08
2023-02-15T13:35:45.671Z,26.80
2023-02-15T13:38:03.904Z,19.85
2023-02-15T13:40:11.467Z,19.92
2023-02-15T13:42:16.037Z,27.90
2023-02-15T13:44:20.060Z,29.50
2023-02-15T13:46:45.811Z,25.08
2023-02-15T13:48:59.020Z,20.73
2023-02-15T13:51:21.788Z,26.67
2023-02-15T13:53:42.122Z,21.17
2023-02-15T13:55:58.483Z,27.15
2023-02-15T13:58:02.896Z,27.40
2023-02-15T14:00:29.252Z,24.40
2023-02-15T14:02:36.091Z,24.38
2023-02-15T14:04:50.554Z,24.70
2023-02-15T14:06:52.160Z,20.80
2023-02-15T14:09:08.736Z,26.40
2023-02-15T14:11:12.985Z,22.02
2023-02-15T14:13:33.165Z,29.05
2023-02-15T14:15:40.645Z,33.88
2023-02-15T14:18:13.053Z,29.48
2023-02-15T14:20:23.081Z,26.10
2023-02-15T14:22:34.140Z,25.38
2023-02-15T14:24:44.205Z,27.05
2023-02-15T14:27:10.064Z,21.60
2023-02-15T14:29:20.153Z,30.95
2023-02-15T14:31:31.414Z,26.02
2023-02-15T14:33:46.637Z,21.10
2023-02-15T14:35:48.729Z,24.15
2023-02-15T14:37:53.694Z,21.45
2023-02-15T14:40:38.211Z,23.90
2023-02-15T14:42:39.809Z,22.52
2023-02-15T14:44:46.314Z,18.50
2023-02-15T14:47:06.068Z,24.98
2023-02-15T14:49:26.967Z,20.50
2023-02-15T14:51:47.048Z,20.83
2023-02-15T14:53:48.517Z,19.38
2023-02-15T14:56:05.945Z,20.77
2023-02-15T14:58:12.065Z,19.02
2023-02-15T15:00:33.910Z,14.70
2023-02-15T15:02:49.899Z,15.07
2023-02-15T15:05:00.133Z,24.75
2023-02-15T15:07:12.916Z,28.38
2023-02-15T15:09:34.652Z,27.52
2023-02-15T15:11:55.429Z,22.40
2023-02-15T15:14:00.926Z,22.10
2023-02-15T15:16:22.403Z,21.15
2023-02-15T15:18:43.611Z,19.70
2023-02-15T15:20:52.268Z,24.65
2023-02-15T15:23:15.467Z,22.23
2023-02-15T15:25:39.762Z,23.60
2023-02-15T15:27:55.281Z,19.48
2023-02-15T15:30:15.317Z,26.08
2023-02-15T15:32:19.736Z,16.60
2023-02-15T15:34:33.531Z,22.75
2023-02-15T15:36:38.350Z,20.52
2023-02-15T15:38:45.638Z,19.23
2023-02-15T15:41:13.314Z,21.70
2023-02-15T15:43:34.150Z,20.10
2023-02-15T15:46:02.472Z,22.15
2023-02-15T15:48:30.223Z,20.98
2023-02-15T15:50:40.744Z,22.85
2023-02-15T15:52:49.775Z,27.77
2023-02-15T15:54:53.887Z,21.25
2023-02-15T15:57:01.541Z,19.98
2023-02-15T15:59:10.184Z,25.77
2023-02-15T16:01:15.690Z,30.85
2023-02-15T16:03:25.550Z,33.05
2023-02-15T16:05:39.291Z,33.08
2023-02-15T16:07:46.113Z,31.00
2023-02-15T16:09:59.663Z,28.60
2023-02-15T16:12:04.037Z,24.85
2023-02-15T16:14:15.082Z,30.85
2023-02-15T16:16:24.531Z,37.72
2023-02-15T16:18:28.783Z,32.08
2023-02-15T16:20:39.372Z,29.70
2023-02-15T16:22:42.278Z,33.75
2023-02-15T16:24:44.081Z,45.88
2023-02-15T16:27:04.377Z,40.47
2023-02-15T16:29:15.011Z,37.80
2023-02-15T16:31:20.126Z,41.50
2023-02-15T16:33:37.836Z,39.75
2023-02-15T16:36:05.701Z,40.17
2023-02-15T16:40:24.677Z,41.05
2023-02-15T16:42:28.773Z,37.20
2023-02-15T16:44:33.898Z,39.10
2023-02-15T16:46:43.944Z,45.70
2023-02-15T16:48:49.773Z,46.17
2023-02-15T16:50:56.102Z,48.28
2023-02-15T16:52:57.833Z,39.78
2023-02-15T16:55:26.038Z,45.05
2023-02-15T16:57:37.339Z,39.97
2023-02-15T16:59:44.447Z,33.10
2023-02-15T17:01:46.039Z,28.63
2023-02-15T17:03:49.645Z,25.88
2023-02-15T17:05:55.269Z,28.33
2023-02-15T17:08:07.489Z,26.88
2023-02-15T17:10:27.054Z,23.80
2023-02-15T17:12:47.851Z,23.88
2023-02-15T17:14:55.314Z,28.15
2023-02-15T17:17:01.202Z,30.52
2023-02-15T17:19:03.863Z,26.83
2023-02-15T17:21:18.440Z,26.10
2023-02-15T17:23:33.595Z,24.05
2023-02-15T17:25:40.017Z,22.02
2023-02-15T17:27:44.109Z,30.02
2023-02-15T17:29:53.079Z,27.08
2023-02-15T17:31:58.843Z,25.00
2023-02-15T17:34:01.224Z,20.05
2023-02-15T17:36:12.371Z,18.15
2023-02-15T17:38:21.637Z,24.23
2023-02-15T17:40:25.449Z,25.27
2023-02-15T17:42:27.136Z,21.25
2023-02-15T17:44:31.489Z,25.30
2023-02-15T17:46:37.354Z,31.50
2023-02-15T17:48:57.558Z,33.85
2023-02-15T17:51:01.593Z,36.20
2023-02-15T17:53:09.322Z,28.85
2023-02-15T17:55:33.340Z,32.03
2023-02-15T17:57:38.740Z,26.25
2023-02-15T18:00:01.601Z,28.58
2023-02-15T18:02:27.962Z,31.98
2023-02-15T18:05:07.088Z,41.10
2023-02-15T18:07:28.460Z,41.20
2023-02-15T18:09:48.423Z,37.53
2023-02-15T18:11:50.693Z,39.42
2023-02-15T18:13:52.223Z,40.55
2023-02-15T18:15:56.469Z,36.53
2023-02-15T18:18:00.623Z,38.03
2023-02-15T18:22:12.874Z,40.47
2023-02-15T18:24:15.574Z,45.72
2023-02-15T18:26:21.142Z,35.15
2023-02-15T18:28:25.549Z,44.35
2023-02-15T18:30:33.489Z,51.08
2023-02-15T18:32:36.299Z,62.72
2023-02-15T18:34:41.663Z,48.33
2023-02-15T18:36:45.922Z,52.70
2023-02-15T18:38:47.592Z,49.75
2023-02-15T18:41:07.784Z,43.25
2023-02-15T18:43:15.393Z,46.03
2023-02-15T18:45:18.622Z,48.40
2023-02-15T18:47:27.972Z,35.72
2023-02-15T18:49:32.345Z,39.53
2023-02-15T18:51:40.852Z,39.00
2023-02-15T18:53:42.823Z,41.97
2023-02-15T18:55:46.318Z,44.67
2023-02-15T18:57:51.663Z,39.05
2023-02-15T18:59:54.394Z,46.35
2023-02-15T19:02:01.638Z,43.45
2023-02-15T19:04:10.576Z,40.60
2023-02-15T19:06:13.589Z,47.08
2023-02-15T19:08:19.005Z,41.13
2023-02-15T19:10:25.214Z,40.25
2023-02-15T19:12:31.196Z,43.03
2023-02-15T19:14:37.013Z,41.67
2023-02-15T19:16:42.482Z,36.45
2023-02-15T19:18:45.790Z,37.58
2023-02-15T19:20:51.956Z,42.20
2023-02-15T19:22:59.441Z,46.78
2023-02-15T19:25:02.918Z,38.97
2023-02-15T19:27:07.929Z,40.40
2023-02-15T19:29:10.822Z,38.38
2023-02-15T19:31:15.324Z,37.92
2023-02-15T19:33:20.835Z,36.13
2023-02-15T19:35:24.032Z,44.13
2023-02-15T19:37:35.107Z,44.13
2023-02-15T19:39:40.469Z,40.15
2023-02-15T19:41:44.920Z,37.72
2023-02-15T19:44:05.236Z,43.78
2023-02-15T19:46:16.926Z,40.05
2023-02-15T19:48:21.417Z,43.45
2023-02-15T19:50:28.104Z,52.20
2023-02-15T19:52:32.243Z,50.25
2023-02-15T19:54:40.154Z,40.63
2023-02-15T19:56:41.994Z,58.97
2023-02-15T19:58:43.500Z,49.20
2023-02-15T20:00:48.569Z,48.85
2023-02-15T20:02:50.523Z,45.05
2023-02-15T20:04:55.032Z,40.53
2023-02-15T20:07:26.298Z,45.13
2023-02-15T20:09:35.623Z,38.30
2023-02-15T20:11:37.172Z,46.75
2023-02-15T20:13:57.435Z,51.88
2023-02-15T20:16:01.719Z,40.88
2023-02-15T20:18:04.255Z,39.90
2023-02-15T20:20:06.375Z,45.50
2023-02-15T20:22:30.803Z,44.58
2023-02-15T20:24:36.148Z,35.42
2023-02-15T20:26:42.731Z,45.22
2023-02-15T20:28:45.954Z,40.40
2023-02-15T20:30:51.161Z,42.78
2023-02-15T20:32:55.616Z,44.95
2023-02-15T20:35:17.376Z,31.23
2023-02-15T20:37:24.100Z,42.72
2023-02-15T20:39:28.542Z,39.05
2023-02-15T20:41:36.049Z,33.97
2023-02-15T20:43:40.542Z,36.13
2023-02-15T20:45:42.141Z,30.35
2023-02-15T20:47:48.318Z,28.67
2023-02-15T20:49:50.602Z,39.00
2023-02-15T20:51:52.897Z,29.60
2023-02-15T20:53:56.958Z,26.92
2023-02-15T20:56:01.490Z,22.60
2023-02-15T20:58:23.370Z,24.27
2023-02-15T21:00:26.684Z,29.85
2023-02-15T21:02:30.830Z,28.63
2023-02-15T21:04:35.377Z,31.83
2023-02-15T21:06:40.101Z,34.30
2023-02-15T21:08:44.624Z,25.73
2023-02-15T21:10:48.050Z,22.73
2023-02-15T21:12:51.382Z,21.98
2023-02-15T21:14:55.926Z,21.25
2023-02-15T21:16:58.524Z,26.83
2023-02-15T21:19:02.868Z,24.75
2023-02-15T21:21:06.368Z,28.00
2023-02-15T21:23:31.917Z,21.30
2023-02-15T21:25:37.178Z,20.70
2023-02-15T21:27:38.948Z,26.88
2023-02-15T21:29:43.672Z,18.75
2023-02-15T21:31:48.453Z,15.52
2023-02-15T21:33:50.066Z,23.45
2023-02-15T21:35:55.625Z,18.60
2023-02-15T21:37:57.059Z,15.32
2023-02-15T21:39:58.586Z,23.38
2023-02-15T21:42:19.056Z,18.08
2023-02-15T21:44:42.689Z,14.40
2023-02-15T21:47:05.341Z,17.30
2023-02-15T21:49:10.748Z,13.23
2023-02-15T21:51:33.242Z,22.52
2023-02-15T21:53:46.940Z,14.15
2023-02-15T21:56:01.103Z,16.80
2023-02-15T21:58:26.880Z,13.27
2023-02-15T22:00:35.460Z,18.20
2023-02-15T22:02:42.373Z,14.63
2023-02-15T22:04:44.374Z,19.27
2023-02-15T22:06:47.433Z,119.75
2023-02-15T22:08:51.123Z,159.63
2023-02-15T22:10:58.414Z,134.90
2023-02-15T22:13:04.957Z,23.70
2023-02-15T22:15:09.607Z,37.50
2023-02-15T22:17:21.458Z,68.32
2023-02-15T22:19:28.560Z,37.78
2023-02-15T22:21:32.771Z,76.13
2023-02-15T22:23:40.554Z,129.90
2023-02-15T22:25:50.404Z,110.18
2023-02-15T22:27:54.765Z,74.70
2023-02-15T22:30:01.696Z,113.57
2023-02-15T22:32:05.667Z,79.30
2023-02-15T22:34:30.893Z,143.63
2023-02-15T22:36:34.894Z,80.68
2023-02-15T22:38:42.360Z,138.60
2023-02-15T22:40:44.355Z,102.50
2023-02-15T22:42:49.644Z,78.85
2023-02-15T22:44:54.708Z,82.20
2023-02-15T22:47:00.096Z,137.02
2023-02-15T22:49:04.554Z,68.47
2023-02-15T22:51:06.306Z,42.65
2023-02-15T22:53:10.875Z,29.67
2023-02-15T22:55:19.848Z,13.15
2023-02-15T22:57:31.312Z,8.00
2023-02-15T23:01:43.711Z,7.85
2023-02-15T23:03:48.135Z,4.03
2023-02-15T23:05:49.769Z,11.40
2023-02-15T23:08:11.371Z,5.80
2023-02-15T23:10:22.655Z,5.78
2023-02-15T23:12:53.752Z,7.47
2023-02-15T23:15:13.910Z,5.88
2023-02-15T23:17:15.457Z,6.07
2023-02-15T23:19:17.071Z,5.85
2023-02-15T23:21:27.232Z,10.65
2023-02-15T23:23:33.523Z,11.98
2023-02-15T23:25:38.056Z,7.25
2023-02-15T23:27:58.166Z,7.72
2023-02-15T23:30:11.973Z,11.30
2023-02-15T23:32:14.205Z,10.45
2023-02-15T23:34:30.451Z,16.02
2023-02-15T23:36:36.841Z,16.13
2023-02-15T23:38:58.540Z,11.48
2023-02-15T23:41:21.457Z,9.73
2023-02-15T23:43:23.118Z,9.25
2023-02-15T23:45:24.868Z,14.38
2023-02-15T23:47:52.476Z,11.23
2023-02-15T23:49:53.920Z,12.13
2023-02-15T23:51:58.580Z,12.20
2023-02-15T23:54:05.800Z,12.25
2023-02-15T23:56:10.271Z,10.32
2023-02-15T23:58:16.303Z,8.15
